»·PEaware :: N123RF KTOA-KVNY

N123RF :: KTOA-KVNY

FLIGHT INFORMATION

Flight Status: Arrived
Operator: Privately registered:
United States
More flights under this callsign
Pilot: Jacek M. (26729)
Aircraft: BEECH AIRCRAFT BARON
(BE58)
More flights by this aircraft type
Origin: KTOA Zamperini
United States
Destination: KVNY Van Nuys
United States
More flights between these airports :: More routes between these airports
Route: +LAX170 LIMBO V64 SMO125 SMO SMO317R CANOG
File this flight plan on PilotEdge
Remarks: SKY HIGH CHARTERS - 1
Altitude:
(Current/Filed)
4,000ft
Speed:
(Current/Filed)
170kts
Departed: 10-Jan-20 04:49 PM
Arrived: 10-Jan-20 05:48 PM
Distance/Time
Traveled:
0nm/0:59
Distance/Time
To Go:
Arrived

Flight Plot

Page will automatically refresh every two minutes.

Flight plan parsing failed; only flown route is shown


Map Options




Map Legend


Flown Route
Filed Route
Departure Airport
Arrival Airport
Navaid (VOR, NDB)
Fix

Horizontal Profiles

Position Reports

Time Latitude Longitude Heading Altitude Ground
Speed
10-Jan-20 15:44 33.801931 -118.343020 218 106ft 0kts
10-Jan-20 15:45 33.801931 -118.343020 218 106ft 0kts
10-Jan-20 15:46 33.801931 -118.343020 218 106ft 0kts
10-Jan-20 15:47 33.801931 -118.343020 218 106ft 0kts
10-Jan-20 15:48 33.801931 -118.343020 218 106ft 0kts
10-Jan-20 15:49 33.801931 -118.343020 218 106ft 0kts
10-Jan-20 15:50 33.801931 -118.343020 218 106ft 0kts
10-Jan-20 15:51 33.801931 -118.343020 218 106ft 0kts
10-Jan-20 15:52 33.801931 -118.343020 218 106ft 0kts
10-Jan-20 15:53 33.801931 -118.343020 218 106ft 0kts
10-Jan-20 15:54 33.801931 -118.343020 218 106ft 0kts
10-Jan-20 15:55 33.801931 -118.343020 218 106ft 0kts
10-Jan-20 15:56 33.801931 -118.343020 218 106ft 0kts
10-Jan-20 15:57 33.801931 -118.343020 218 106ft 0kts
10-Jan-20 15:58 33.801931 -118.343020 218 106ft 0kts
10-Jan-20 15:59 33.801931 -118.343020 218 106ft 0kts
10-Jan-20 16:00 33.801931 -118.343020 218 106ft 0kts
10-Jan-20 16:01 33.801931 -118.343020 218 106ft 0kts
10-Jan-20 16:02 33.801931 -118.343020 218 106ft 0kts
10-Jan-20 16:03 33.801931 -118.343020 218 106ft 0kts
10-Jan-20 16:04 33.801931 -118.343020 218 106ft 0kts
10-Jan-20 16:05 33.801931 -118.343020 218 106ft 0kts
10-Jan-20 16:06 33.801931 -118.343020 218 106ft 0kts
10-Jan-20 16:07 33.801931 -118.343020 218 106ft 0kts
10-Jan-20 16:08 33.801931 -118.343020 218 106ft 0kts
10-Jan-20 16:09 33.801931 -118.343020 218 106ft 0kts
10-Jan-20 16:10 33.801931 -118.343020 218 106ft 0kts
10-Jan-20 16:11 33.801931 -118.343020 218 106ft 0kts
10-Jan-20 16:12 33.801931 -118.343020 218 106ft 0kts
10-Jan-20 16:13 33.801931 -118.343020 218 106ft 0kts
10-Jan-20 16:14 33.801931 -118.343020 218 106ft 0kts
10-Jan-20 16:15 33.801931 -118.343020 218 106ft 0kts
10-Jan-20 16:16 33.801931 -118.343020 218 106ft 0kts
10-Jan-20 16:17 33.801931 -118.343020 218 106ft 0kts
10-Jan-20 16:18 33.801931 -118.343020 218 106ft 0kts
10-Jan-20 16:19 33.801931 -118.343020 218 106ft 0kts
10-Jan-20 16:20 33.801931 -118.343020 218 106ft 0kts
10-Jan-20 16:21 33.801931 -118.343020 218 106ft 0kts
10-Jan-20 16:22 33.801931 -118.343020 218 106ft 0kts
10-Jan-20 16:23 33.801931 -118.343020 218 106ft 0kts
10-Jan-20 16:24 33.801931 -118.343020 218 106ft 0kts
10-Jan-20 16:25 33.801931 -118.343020 218 106ft 0kts
10-Jan-20 16:26 33.801931 -118.343020 218 106ft 0kts
10-Jan-20 16:27 33.801931 -118.343020 218 106ft 0kts
10-Jan-20 16:28 33.801931 -118.343020 218 106ft 0kts
10-Jan-20 16:29 33.801931 -118.343020 218 106ft 0kts
10-Jan-20 16:30 33.801931 -118.343020 218 106ft 0kts
10-Jan-20 16:31 33.801931 -118.343020 218 106ft 0kts
10-Jan-20 16:32 33.801931 -118.343020 218 106ft 0kts
10-Jan-20 16:33 33.801931 -118.343020 218 106ft 0kts
10-Jan-20 16:34 33.801931 -118.343020 218 106ft 0kts
10-Jan-20 16:35 33.801931 -118.343020 218 106ft 0kts
10-Jan-20 16:36 33.801931 -118.343020 218 106ft 0kts
10-Jan-20 16:37 33.801931 -118.343020 218 106ft 0kts
10-Jan-20 16:38 33.801931 -118.343020 218 106ft 0kts
10-Jan-20 16:39 33.801931 -118.343020 218 106ft 0kts
10-Jan-20 16:40 33.801931 -118.343020 218 106ft 0kts
10-Jan-20 16:41 33.801931 -118.343020 218 106ft 0kts
10-Jan-20 16:42 33.801856 -118.342843 47 106ft 0kts
10-Jan-20 16:43 33.800796 -118.339214 58 106ft 13kts
10-Jan-20 16:44 33.799169 -118.333443 37 106ft 14kts
10-Jan-20 16:45 33.799237 -118.333379 37 106ft 0kts
10-Jan-20 16:46 33.799238 -118.333378 37 106ft 0kts
10-Jan-20 16:47 33.799244 -118.333373 37 106ft 1kts
10-Jan-20 16:48 33.802154 -118.336727 309 106ft 77kts
10-Jan-20 16:49 33.817935 -118.365181 301 1495ft 105kts
10-Jan-20 16:50 33.833544 -118.397310 302 2895ft 116kts
10-Jan-20 16:51 33.843381 -118.435283 242 3984ft 142kts
10-Jan-20 16:52 33.799124 -118.448951 174 4002ft 193kts
10-Jan-20 16:53 33.754397 -118.419787 107 3999ft 196kts
10-Jan-20 16:54 33.765356 -118.358473 77 3998ft 193kts
10-Jan-20 16:56 33.769916 -118.294460 81 3994ft 190kts
10-Jan-20 16:57 33.775801 -118.233341 85 4003ft 180kts
10-Jan-20 16:58 33.796470 -118.187692 5 4020ft 181kts
10-Jan-20 16:59 33.833832 -118.224337 287 4020ft 194kts
10-Jan-20 17:00 33.847251 -118.285257 310 4017ft 186kts
10-Jan-20 17:01 33.884670 -118.329199 323 4019ft 191kts
10-Jan-20 17:02 33.927225 -118.369516 319 4022ft 194kts
10-Jan-20 17:03 33.967983 -118.408783 318 4017ft 185kts
10-Jan-20 17:04 34.005375 -118.451061 316 4017ft 183kts
10-Jan-20 17:05 34.047672 -118.484768 334 4017ft 183kts
10-Jan-20 17:06 34.091802 -118.515436 327 4016ft 183kts
10-Jan-20 17:07 34.127970 -118.558852 313 4018ft 183kts
10-Jan-20 17:08 34.174202 -118.580297 352 4019ft 183kts
10-Jan-20 17:09 34.225161 -118.586935 353 4019ft 184kts
10-Jan-20 17:10 34.275977 -118.593481 353 4180ft 174kts
10-Jan-20 17:11 34.319223 -118.599001 352 5022ft 163kts
10-Jan-20 17:12 34.367146 -118.605087 352 5020ft 179kts
10-Jan-20 17:13 34.417492 -118.611559 353 5018ft 181kts
10-Jan-20 17:13 34.458905 -118.610158 26 5019ft 184kts
10-Jan-20 17:15 34.491160 -118.548755 77 5010ft 190kts
10-Jan-20 17:16 34.465191 -118.507458 180 5014ft 161kts
10-Jan-20 17:16 34.429296 -118.512951 168 4957ft 155kts
10-Jan-20 17:18 34.377976 -118.506492 176 4498ft 175kts
10-Jan-20 17:18 34.334843 -118.502413 176 3543ft 195kts
10-Jan-20 17:19 34.281198 -118.497300 176 2331ft 169kts
10-Jan-20 17:21 34.237849 -118.493145 177 1431ft 107kts
10-Jan-20 17:21 34.204575 -118.489648 179 1723ft 170kts
10-Jan-20 17:22 34.156702 -118.481889 164 2733ft 158kts
10-Jan-20 17:24 34.113852 -118.466932 164 4546ft 137kts
10-Jan-20 17:24 34.076244 -118.462144 181 4625ft 184kts
10-Jan-20 17:25 34.022857 -118.457994 175 4620ft 196kts
10-Jan-20 17:26 33.985506 -118.492074 267 4633ft 195kts
10-Jan-20 17:27 34.007903 -118.548482 312 4617ft 186kts
10-Jan-20 17:28 34.030563 -118.603171 280 4618ft 186kts
10-Jan-20 17:29 34.037726 -118.664888 280 4619ft 186kts
10-Jan-20 17:30 34.045063 -118.726648 281 4651ft 185kts
10-Jan-20 17:31 34.053558 -118.788025 280 4655ft 186kts
10-Jan-20 17:32 34.060120 -118.850050 279 4655ft 186kts
10-Jan-20 17:33 34.067603 -118.911721 280 4656ft 186kts
10-Jan-20 17:34 34.102058 -118.942399 14 4658ft 184kts
10-Jan-20 17:35 34.142680 -118.904028 42 4655ft 189kts
10-Jan-20 17:36 34.179789 -118.858814 42 4656ft 189kts
10-Jan-20 17:37 34.202984 -118.803835 87 4657ft 194kts
10-Jan-20 17:38 34.200850 -118.739019 78 3993ft 188kts
10-Jan-20 17:39 34.201812 -118.678711 86 3651ft 166kts
10-Jan-20 17:40 34.201276 -118.627054 87 3651ft 143kts
10-Jan-20 17:41 34.200707 -118.581088 87 3652ft 132kts
10-Jan-20 17:42 34.200134 -118.536159 88 3457ft 143kts
10-Jan-20 17:43 34.225562 -118.505672 356 2784ft 148kts
10-Jan-20 17:44 34.264188 -118.507026 44 2059ft 144kts
10-Jan-20 17:45 34.262631 -118.466721 144 2034ft 117kts
10-Jan-20 17:46 34.230177 -118.486635 210 1590ft 124kts
10-Jan-20 17:47 34.207648 -118.488850 141 805ft 10kts
10-Jan-20 17:48 34.207899 -118.488239 18 805ft 11kts
10-Jan-20 17:49 34.208234 -118.486464 82 805ft 0kts
10-Jan-20 17:50 34.208234 -118.486464 82 805ft 0kts
10-Jan-20 17:51 34.208235 -118.486464 82 805ft 0kts
10-Jan-20 17:52 33.801931 -118.343019 218 103ft 0kts

Navigation Log

Ident Type
Flight plan parsing failed, navigation log unavailable